Time;durP1;ratioP1;P1;durP2;ratioP2;P2;SDS_P1;SDS_P2;PMS_P1;PMS_P2;Temp;Humidity;BMP_temperature;BMP_pressure;BME280_temperature;BME280_humidity;BME280_pressure;Samples;Min_cycle;Max_cycle;Signal;HPM_P1;HPM_P2
2023/05/16 00:00:53;;;;;;;4.13;1.10;;;15.50;96.40;;;;;;10425849;28;20030;-66
2023/05/16 00:05:54;;;;;;;2.47;1.20;;;15.70;96.40;;;;;;10431477;28;20057;-66
2023/05/16 00:10:55;;;;;;;4.47;1.45;;;15.60;96.40;;;;;;10429025;28;20025;-66
2023/05/16 00:15:56;;;;;;;4.05;1.60;;;15.40;96.30;;;;;;10422415;28;20033;-66
2023/05/16 00:20:57;;;;;;;2.28;1.15;;;15.50;96.40;;;;;;10427765;28;20026;-66
2023/05/16 00:25:58;;;;;;;4.93;1.55;;;15.50;96.40;;;;;;10436674;28;20037;-66
2023/05/16 00:30:58;;;;;;;4.53;1.20;;;15.40;96.30;;;;;;10433932;28;20103;-66
2023/05/16 00:35:59;;;;;;;4.10;0.88;;;15.40;96.30;;;;;;10428986;28;20052;-66
2023/05/16 00:41:00;;;;;;;4.82;0.95;;;15.40;96.30;;;;;;10423738;28;20025;-66
2023/05/16 00:46:00;;;;;;;3.03;1.10;;;15.30;96.30;;;;;;10432737;28;20397;-66
2023/05/16 00:51:01;;;;;;;3.97;1.25;;;15.30;96.30;;;;;;10428161;28;20497;-66
2023/05/16 00:56:02;;;;;;;4.07;0.90;;;15.30;96.30;;;;;;10430501;28;20014;-66
2023/05/16 01:01:03;;;;;;;3.10;0.88;;;15.20;96.30;;;;;;10428663;28;20029;-66
2023/05/16 01:06:05;;;;;;;2.03;0.90;;;15.20;96.30;;;;;;10427152;28;20021;-66
2023/05/16 01:11:22;;;;;;;3.10;0.75;;;15.20;96.30;;;;;;10426942;28;20396;-66
2023/05/16 01:16:39;;;;;;;3.55;1.02;;;15.10;96.10;;;;;;10426728;28;20043;-66
2023/05/16 01:22:05;;;;;;;5.40;1.60;;;15.10;96.10;;;;;;10424209;28;20025;-66
2023/05/16 01:27:07;;;;;;;3.03;0.90;;;15.10;96.10;;;;;;10434906;28;20029;-66
2023/05/16 01:32:07;;;;;;;4.05;1.23;;;15.10;96.10;;;;;;10432917;28;20493;-66
2023/05/16 01:37:28;;;;;;;2.83;0.88;;;15.00;96.10;;;;;;10423305;28;20677;-66
2023/05/16 01:42:32;;;;;;;4.45;0.90;;;15.00;96.00;;;;;;10421666;28;20024;-66
2023/05/16 01:47:37;;;;;;;3.15;1.00;;;15.00;96.00;;;;;;10426900;28;20025;-66
2023/05/16 01:52:46;;;;;;;4.57;0.95;;;15.00;96.00;;;;;;10433935;28;20029;-66
2023/05/16 01:57:48;;;;;;;3.42;0.90;;;15.00;96.00;;;;;;10431196;28;20500;-66
2023/05/16 02:02:49;;;;;;;4.20;1.15;;;14.90;96.00;;;;;;10420242;28;20450;-66
2023/05/16 02:07:49;;;;;;;4.47;1.10;;;14.90;96.00;;;;;;10435681;28;20025;-66
2023/05/16 02:12:50;;;;;;;2.72;0.88;;;14.90;96.00;;;;;;10433548;28;20036;-66
2023/05/16 02:17:51;;;;;;;3.95;0.93;;;14.80;95.90;;;;;;10415813;28;20017;-66
2023/05/16 02:22:51;;;;;;;4.28;1.38;;;14.80;95.90;;;;;;10427310;28;20480;-66
2023/05/16 02:27:52;;;;;;;2.95;0.90;;;14.80;95.90;;;;;;10430799;28;20045;-66
2023/05/16 02:32:53;;;;;;;3.83;0.82;;;14.90;95.90;;;;;;10435502;28;20069;-66
2023/05/16 02:37:54;;;;;;;4.30;0.77;;;14.80;95.90;;;;;;10426211;28;20496;-66
2023/05/16 02:42:55;;;;;;;2.83;0.85;;;14.70;95.80;;;;;;10426941;28;20031;-67
2023/05/16 02:47:56;;;;;;;5.53;1.40;;;14.70;95.80;;;;;;10422615;28;20033;-67
2023/05/16 02:52:58;;;;;;;7.18;1.15;;;14.70;95.90;;;;;;10429349;28;20099;-67
2023/05/16 02:57:59;;;;;;;1.65;0.80;;;14.70;95.80;;;;;;10429382;28;20013;-67
2023/05/16 03:03:00;;;;;;;2.67;0.90;;;14.60;95.80;;;;;;10426111;28;20033;-67
2023/05/16 03:08:00;;;;;;;3.08;0.80;;;14.60;95.70;;;;;;10426172;28;20021;-66
2023/05/16 03:13:01;;;;;;;5.35;1.10;;;14.60;95.80;;;;;;10439412;28;20029;-67
2023/05/16 03:18:01;;;;;;;2.38;1.02;;;14.60;95.70;;;;;;10438265;28;20113;-67
2023/05/16 03:23:02;;;;;;;5.20;1.00;;;14.50;95.70;;;;;;10435929;28;20024;-66
2023/05/16 03:28:06;;;;;;;4.90;1.10;;;14.50;95.70;;;;;;10432751;28;20652;-66
2023/05/16 03:33:07;;;;;;;5.20;1.00;;;14.50;95.70;;;;;;10433638;28;20033;-67
2023/05/16 03:38:08;;;;;;;6.25;0.80;;;14.50;95.70;;;;;;10426706;28;20021;-67
2023/05/16 03:43:08;;;;;;;3.28;0.73;;;14.40;95.60;;;;;;10424329;28;20497;-67
2023/05/16 03:48:09;;;;;;;2.55;0.90;;;14.40;95.60;;;;;;10430570;28;20113;-67
2023/05/16 03:53:10;;;;;;;1.85;0.60;;;14.40;95.60;;;;;;10423100;28;20072;-66
2023/05/16 03:58:11;;;;;;;7.40;0.95;;;14.40;95.60;;;;;;10427007;28;20040;-67
2023/05/16 04:03:12;;;;;;;2.42;0.75;;;14.30;95.60;;;;;;10425785;28;20052;-67
2023/05/16 04:08:12;;;;;;;3.55;0.93;;;14.30;95.60;;;;;;10429224;28;20103;-67
2023/05/16 04:13:14;;;;;;;2.83;1.00;;;14.30;95.60;;;;;;10433254;28;20391;-67
2023/05/16 04:18:14;;;;;;;2.95;0.77;;;14.30;95.60;;;;;;10430553;28;20079;-67
2023/05/16 04:23:15;;;;;;;2.00;0.82;;;14.30;95.50;;;;;;10427644;28;20032;-67
2023/05/16 04:28:16;;;;;;;5.20;1.63;;;14.30;95.50;;;;;;10430123;28;20071;-67
2023/05/16 04:33:17;;;;;;;3.58;0.77;;;14.30;95.50;;;;;;10427738;28;20021;-67
2023/05/16 04:38:18;;;;;;;3.40;0.90;;;14.30;95.50;;;;;;10415925;28;20439;-67
2023/05/16 04:43:19;;;;;;;3.40;0.70;;;14.20;95.40;;;;;;10425699;28;20381;-67
2023/05/16 04:48:19;;;;;;;4.22;0.80;;;14.20;95.40;;;;;;10428639;28;20029;-66
2023/05/16 04:53:20;;;;;;;2.45;0.70;;;14.20;95.40;;;;;;10427595;28;20041;-67
2023/05/16 04:58:22;;;;;;;4.60;0.80;;;14.20;95.40;;;;;;10414684;28;20121;-66
2023/05/16 05:03:23;;;;;;;1.80;0.82;;;14.20;95.40;;;;;;10419810;28;20561;-67
2023/05/16 05:08:24;;;;;;;4.90;0.82;;;14.20;95.30;;;;;;10426393;28;20029;-67
2023/05/16 05:13:25;;;;;;;4.95;0.80;;;14.20;95.30;;;;;;10428413;28;20497;-66
2023/05/16 05:18:26;;;;;;;4.10;1.27;;;14.20;95.30;;;;;;10425813;28;20094;-66
2023/05/16 05:23:26;;;;;;;3.92;0.85;;;14.20;95.30;;;;;;10429086;28;20260;-67
2023/05/16 05:28:27;;;;;;;2.30;1.13;;;14.30;95.20;;;;;;10427699;28;20056;-67
2023/05/16 05:33:28;;;;;;;6.07;1.00;;;14.20;95.20;;;;;;10428890;28;20026;-66
2023/05/16 05:38:28;;;;;;;2.08;0.80;;;14.10;95.10;;;;;;10417423;28;20108;-67
2023/05/16 05:43:29;;;;;;;1.73;0.80;;;14.20;95.10;;;;;;10423363;28;20030;-67
2023/05/16 05:48:31;;;;;;;3.28;0.70;;;14.20;95.10;;;;;;10427169;28;20057;-67
2023/05/16 05:53:31;;;;;;;5.75;0.90;;;14.10;95.10;;;;;;10430465;28;20033;-67
2023/05/16 05:58:32;;;;;;;4.05;0.65;;;14.20;95.00;;;;;;10424126;28;20036;-67
2023/05/16 06:03:33;;;;;;;1.88;0.70;;;14.20;95.00;;;;;;10413797;28;20033;-67
2023/05/16 06:08:33;;;;;;;6.55;1.10;;;14.20;95.00;;;;;;10422965;28;20078;-67
2023/05/16 06:13:34;;;;;;;1.42;0.60;;;14.20;95.00;;;;;;10413332;28;20028;-67
2023/05/16 06:18:35;;;;;;;1.58;0.63;;;14.20;94.90;;;;;;10428235;28;20056;-67
2023/05/16 06:23:36;;;;;;;3.97;1.02;;;14.20;94.90;;;;;;10402301;28;20554;-67
2023/05/16 06:28:36;;;;;;;3.25;0.93;;;14.20;94.90;;;;;;10422577;28;20253;-67
2023/05/16 06:33:37;;;;;;;4.47;0.80;;;14.20;94.90;;;;;;10418949;28;20117;-67
2023/05/16 06:38:37;;;;;;;3.35;1.10;;;14.20;94.80;;;;;;10417466;28;20036;-67
2023/05/16 06:43:39;;;;;;;1.67;0.90;;;14.20;94.80;;;;;;10413296;28;20029;-67
2023/05/16 06:48:40;;;;;;;2.88;0.77;;;14.40;94.90;;;;;;10418399;28;20401;-67
2023/05/16 06:53:41;;;;;;;1.30;0.50;;;14.20;94.80;;;;;;10406187;28;20048;-67
2023/05/16 06:58:41;;;;;;;2.47;0.63;;;14.30;94.80;;;;;;10416462;28;20037;-67
2023/05/16 07:03:42;;;;;;;1.92;0.73;;;14.30;94.70;;;;;;10429784;28;20033;-67
2023/05/16 07:08:42;;;;;;;2.85;0.50;;;14.30;94.70;;;;;;10422367;28;20025;-67
2023/05/16 07:13:43;;;;;;;2.85;0.50;;;14.30;94.70;;;;;;10426002;28;20021;-67
2023/05/16 07:18:43;;;;;;;1.48;0.50;;;14.30;94.70;;;;;;10426233;28;20108;-67
2023/05/16 07:23:44;;;;;;;1.95;0.60;;;14.30;94.70;;;;;;10422678;28;20037;-67
2023/05/16 07:28:44;;;;;;;1.17;0.60;;;14.40;94.70;;;;;;10427183;28;20036;-67
2023/05/16 07:33:48;;;;;;;3.58;0.60;;;14.50;94.70;;;;;;10426449;28;20033;-67
2023/05/16 07:38:48;;;;;;;1.05;0.40;;;14.40;94.70;;;;;;10423581;28;20063;-67
2023/05/16 07:43:49;;;;;;;2.75;0.40;;;14.50;94.70;;;;;;10420689;28;20026;-67
2023/05/16 07:48:50;;;;;;;1.60;0.60;;;14.50;94.60;;;;;;10423193;28;20033;-67
2023/05/16 07:53:50;;;;;;;1.42;0.47;;;14.50;94.60;;;;;;10424520;28;20029;-67
2023/05/16 07:58:52;;;;;;;2.25;0.50;;;14.50;94.60;;;;;;10427405;28;20176;-67
2023/05/16 08:03:52;;;;;;;1.67;0.68;;;14.50;94.60;;;;;;10437320;28;20072;-67
2023/05/16 08:09:00;;;;;;;1.48;0.35;;;14.40;94.70;;;;;;10422033;28;20022;-67
2023/05/16 08:14:01;;;;;;;1.58;0.40;;;14.50;94.70;;;;;;10424609;28;20018;-67
2023/05/16 08:19:02;;;;;;;0.82;0.50;;;14.50;94.70;;;;;;10435764;28;20507;-67
2023/05/16 08:24:04;;;;;;;3.28;0.85;;;14.50;94.70;;;;;;10435799;28;20112;-67
2023/05/16 08:29:04;;;;;;;1.30;0.70;;;14.50;94.60;;;;;;10427048;28;20033;-67
2023/05/16 08:34:05;;;;;;;2.45;0.70;;;14.50;94.60;;;;;;10433728;28;20032;-67
2023/05/16 08:39:06;;;;;;;2.70;0.50;;;14.70;94.60;;;;;;10421027;28;20497;-67
2023/05/16 08:44:09;;;;;;;0.90;0.60;;;14.70;94.50;;;;;;10430579;28;20021;-66
2023/05/16 08:49:10;;;;;;;1.63;0.80;;;14.70;94.50;;;;;;10433401;28;20021;-66
2023/05/16 08:54:12;;;;;;;4.90;0.73;;;14.70;94.40;;;;;;10423034;28;20030;-66
2023/05/16 08:59:13;;;;;;;1.15;0.40;;;14.80;94.40;;;;;;10425410;28;20020;-66
2023/05/16 09:04:15;;;;;;;1.40;0.52;;;14.80;94.40;;;;;;10429546;28;20486;-66
2023/05/16 09:09:15;;;;;;;1.30;0.50;;;14.80;94.40;;;;;;10428120;28;20029;-66
2023/05/16 09:14:16;;;;;;;2.47;0.40;;;14.80;94.40;;;;;;10413026;28;20033;-66
2023/05/16 09:19:17;;;;;;;1.60;0.50;;;14.80;94.60;;;;;;10419697;28;20029;-66
2023/05/16 09:24:25;;;;;;;0.95;0.40;;;15.00;94.30;;;;;;10415007;28;20036;-66
2023/05/16 09:29:26;;;;;;;2.30;0.30;;;15.00;94.20;;;;;;10410477;28;20090;-66
2023/05/16 09:34:26;;;;;;;1.50;0.43;;;15.00;94.20;;;;;;10420227;28;20028;-66
2023/05/16 09:39:27;;;;;;;0.77;0.43;;;15.00;94.20;;;;;;10419562;28;20031;-66
2023/05/16 09:44:28;;;;;;;0.52;0.40;;;15.10;94.20;;;;;;10423259;28;20029;-66
2023/05/16 09:49:29;;;;;;;1.13;0.50;;;15.10;94.10;;;;;;10428872;28;20504;-66
2023/05/16 09:54:31;;;;;;;0.77;0.40;;;15.20;94.10;;;;;;10430014;28;20019;-66
2023/05/16 09:59:39;;;;;;;2.13;0.40;;;15.20;94.00;;;;;;10424904;28;20033;-66
2023/05/16 10:04:40;;;;;;;3.22;0.57;;;15.30;94.00;;;;;;10424248;28;20448;-66
2023/05/16 10:09:42;;;;;;;2.33;0.50;;;15.30;94.00;;;;;;10420697;28;20497;-66
2023/05/16 10:14:45;;;;;;;1.15;0.52;;;15.30;94.00;;;;;;10419596;28;20473;-66
2023/05/16 10:19:47;;;;;;;0.88;0.57;;;15.30;94.10;;;;;;10427388;28;20053;-67
2023/05/16 10:25:12;;;;;;;1.60;0.32;;;15.30;94.10;;;;;;10420247;28;20013;-66
2023/05/16 10:30:14;;;;;;;2.42;0.88;;;15.30;94.10;;;;;;10430270;28;20403;-66
2023/05/16 10:35:15;;;;;;;2.13;0.43;;;15.40;94.10;;;;;;10422559;28;20044;-66
2023/05/16 10:40:17;;;;;;;1.77;0.47;;;15.40;94.10;;;;;;10423766;28;20373;-67
2023/05/16 10:45:19;;;;;;;4.60;1.15;;;15.40;94.00;;;;;;10419468;28;20025;-66
2023/05/16 10:50:35;;;;;;;1.15;0.50;;;15.40;94.00;;;;;;10413856;28;20505;-66
2023/05/16 10:55:37;;;;;;;3.33;0.50;;;15.50;93.90;;;;;;10426011;28;20044;-66
2023/05/16 11:00:39;;;;;;;0.95;0.47;;;15.50;94.00;;;;;;10414440;28;20071;-66
2023/05/16 11:05:39;;;;;;;1.95;0.52;;;15.50;94.00;;;;;;10421855;28;20041;-67
2023/05/16 11:10:40;;;;;;;1.67;0.55;;;15.50;94.00;;;;;;10426887;28;20028;-66
2023/05/16 11:15:41;;;;;;;1.77;0.32;;;15.60;94.00;;;;;;10424295;28;20104;-66
2023/05/16 11:20:42;;;;;;;2.88;0.60;;;15.60;93.90;;;;;;10422124;28;20018;-67
2023/05/16 11:25:45;;;;;;;1.38;0.52;;;15.60;93.90;;;;;;10426699;28;20033;-66
2023/05/16 11:30:51;;;;;;;1.77;0.80;;;15.70;93.80;;;;;;10427027;28;20029;-66
2023/05/16 11:36:08;;;;;;;2.15;0.50;;;15.70;93.80;;;;;;10432024;28;20013;-66
2023/05/16 11:41:09;;;;;;;2.13;0.50;;;15.70;93.80;;;;;;10436372;28;20588;-66
2023/05/16 11:46:15;;;;;;;2.58;0.47;;;15.70;93.90;;;;;;10425884;28;20082;-66
2023/05/16 11:51:19;;;;;;;1.85;0.47;;;15.70;93.90;;;;;;10423405;28;20025;-66
2023/05/16 11:56:21;;;;;;;1.05;0.30;;;15.70;93.80;;;;;;10429035;28;20048;-66
2023/05/16 12:01:22;;;;;;;2.15;0.50;;;15.70;93.90;;;;;;10428286;28;20024;-66
2023/05/16 12:06:22;;;;;;;3.55;0.55;;;15.80;94.20;;;;;;10429688;28;20420;-66
2023/05/16 12:11:23;;;;;;;1.02;0.38;;;15.90;93.80;;;;;;10432392;28;20013;-66
2023/05/16 12:16:24;;;;;;;1.35;0.73;;;15.90;93.70;;;;;;10428407;28;20477;-67
2023/05/16 12:21:25;;;;;;;3.33;0.68;;;16.00;93.70;;;;;;10433915;28;20023;-66
2023/05/16 12:26:30;;;;;;;2.42;0.70;;;16.10;93.60;;;;;;10429705;28;20412;-66
2023/05/16 12:31:36;;;;;;;1.20;0.60;;;16.20;93.50;;;;;;10429576;28;20339;-67
2023/05/16 12:36:36;;;;;;;0.98;0.35;;;16.30;93.40;;;;;;10424320;28;20017;-66
2023/05/16 12:41:41;;;;;;;1.52;0.50;;;16.30;93.40;;;;;;10408775;28;20033;-66
2023/05/16 12:46:47;;;;;;;0.75;0.43;;;16.30;93.30;;;;;;10418775;28;20029;-66
2023/05/16 12:51:51;;;;;;;1.15;0.68;;;16.30;93.30;;;;;;10418146;28;20159;-66
2023/05/16 12:56:52;;;;;;;1.13;0.47;;;16.40;93.20;;;;;;10422583;28;20017;-66
2023/05/16 13:01:53;;;;;;;1.17;0.68;;;16.50;93.20;;;;;;10436665;28;20032;-66
2023/05/16 13:06:53;;;;;;;0.68;0.52;;;16.50;93.20;;;;;;10424858;28;20397;-67
2023/05/16 13:11:54;;;;;;;0.80;0.50;;;16.50;93.20;;;;;;10429036;28;20025;-67
2023/05/16 13:16:54;;;;;;;1.90;0.50;;;16.50;93.30;;;;;;10418492;28;20025;-66
2023/05/16 13:21:55;;;;;;;1.83;0.60;;;16.50;93.30;;;;;;10435547;28;20104;-66
2023/05/16 13:26:56;;;;;;;1.50;0.60;;;16.70;93.20;;;;;;10425715;28;20111;-66
2023/05/16 13:31:57;;;;;;;2.95;0.80;;;16.80;93.10;;;;;;10420225;28;20027;-67
2023/05/16 13:36:58;;;;;;;2.17;0.80;;;16.80;93.10;;;;;;10421400;28;20508;-66
2023/05/16 13:41:59;;;;;;;0.80;0.57;;;16.90;93.10;;;;;;10408854;28;20482;-67
2023/05/16 13:46:59;;;;;;;2.55;0.70;;;17.00;93.10;;;;;;10413552;28;20030;-66
2023/05/16 13:52:00;;;;;;;1.80;0.70;;;16.90;93.20;;;;;;10419454;28;20256;-66
2023/05/16 13:57:02;;;;;;;2.97;0.80;;;16.90;93.40;;;;;;10416287;28;20030;-66
2023/05/16 14:02:03;;;;;;;2.10;0.70;;;16.80;93.50;;;;;;10414628;28;20492;-66
2023/05/16 14:07:04;;;;;;;3.97;0.73;;;16.70;93.60;;;;;;10419629;28;20109;-67
2023/05/16 14:12:06;;;;;;;3.40;1.17;;;16.70;93.80;;;;;;10415946;28;20026;-66
2023/05/16 14:17:06;;;;;;;1.92;0.77;;;16.60;93.90;;;;;;10421572;28;20021;-66
2023/05/16 14:22:07;;;;;;;1.63;0.75;;;16.60;93.90;;;;;;10416487;28;20048;-67
2023/05/16 14:27:09;;;;;;;2.90;1.10;;;16.60;94.00;;;;;;10406070;28;20037;-67
2023/05/16 14:32:10;;;;;;;2.40;1.30;;;16.60;94.00;;;;;;10415065;28;20033;-66
2023/05/16 14:37:12;;;;;;;2.35;0.93;;;16.60;94.10;;;;;;10412864;28;20021;-66
2023/05/16 14:42:14;;;;;;;2.25;0.80;;;16.60;93.90;;;;;;10419033;28;20049;-66
2023/05/16 14:47:14;;;;;;;2.13;0.90;;;16.70;93.90;;;;;;10410130;28;20049;-66
2023/05/16 14:52:15;;;;;;;3.90;1.38;;;16.70;93.90;;;;;;10417492;28;20104;-66
2023/05/16 14:57:15;;;;;;;4.50;1.30;;;16.70;94.00;;;;;;10415220;28;20029;-66
2023/05/16 15:02:16;;;;;;;1.85;0.98;;;16.60;94.00;;;;;;10421914;28;20025;-66
2023/05/16 15:07:17;;;;;;;3.03;1.02;;;16.60;94.10;;;;;;10417188;28;20029;-66
2023/05/16 15:12:17;;;;;;;3.97;1.42;;;16.50;94.00;;;;;;10416600;28;20065;-66
2023/05/16 15:17:18;;;;;;;1.55;0.95;;;16.60;94.10;;;;;;10418749;28;20358;-66
2023/05/16 15:22:19;;;;;;;3.15;1.00;;;16.60;94.00;;;;;;10418003;28;20453;-66
2023/05/16 15:27:21;;;;;;;2.10;1.17;;;16.50;94.00;;;;;;10416185;28;20048;-66
2023/05/16 15:32:22;;;;;;;3.88;1.40;;;16.60;94.10;;;;;;10418299;28;20156;-67
2023/05/16 15:37:23;;;;;;;2.83;1.17;;;16.60;94.10;;;;;;10412977;28;20157;-67
2023/05/16 15:42:23;;;;;;;3.08;1.23;;;16.50;94.00;;;;;;10422762;28;20017;-66
2023/05/16 15:47:24;;;;;;;3.33;1.30;;;16.50;94.10;;;;;;10417687;28;20105;-67
2023/05/16 15:52:25;;;;;;;2.15;1.20;;;16.50;94.10;;;;;;10415725;28;20078;-66
2023/05/16 15:57:26;;;;;;;2.97;1.20;;;16.40;94.10;;;;;;10413422;28;20382;-66
2023/05/16 16:02:26;;;;;;;2.42;1.20;;;16.40;94.20;;;;;;10414215;28;20279;-67
2023/05/16 16:07:27;;;;;;;2.88;1.08;;;16.40;94.20;;;;;;10417347;28;20021;-67
2023/05/16 16:12:29;;;;;;;3.17;1.10;;;16.30;94.20;;;;;;10421419;28;20029;-66
2023/05/16 16:17:29;;;;;;;2.20;1.02;;;16.30;94.30;;;;;;10424375;28;20067;-66
2023/05/16 16:22:30;;;;;;;4.75;1.10;;;16.30;94.40;;;;;;10419047;28;20029;-67
2023/05/16 16:27:30;;;;;;;1.55;0.90;;;16.30;94.40;;;;;;10422065;28;20033;-66
2023/05/16 16:32:31;;;;;;;1.55;0.90;;;16.20;94.40;;;;;;10421458;28;20028;-66
2023/05/16 16:37:32;;;;;;;3.40;1.00;;;16.20;94.40;;;;;;10410464;28;20104;-67
2023/05/16 16:42:33;;;;;;;2.90;1.10;;;16.20;94.40;;;;;;10420449;28;20036;-67
2023/05/16 16:47:33;;;;;;;2.35;1.00;;;16.20;94.40;;;;;;10417497;28;20464;-67
2023/05/16 16:52:34;;;;;;;1.50;1.00;;;16.20;94.40;;;;;;10421070;28;20033;-67
2023/05/16 16:57:34;;;;;;;1.85;1.00;;;16.20;94.40;;;;;;10422655;28;20009;-66
2023/05/16 17:02:35;;;;;;;2.78;1.25;;;16.20;94.40;;;;;;10425187;28;20032;-66
2023/05/16 17:07:36;;;;;;;1.55;0.82;;;16.20;94.50;;;;;;10426114;28;20501;-66
2023/05/16 17:12:43;;;;;;;2.35;0.80;;;16.20;94.50;;;;;;10427519;28;20389;-67
2023/05/16 17:17:44;;;;;;;3.00;1.13;;;16.20;94.50;;;;;;10428525;28;20045;-67
2023/05/16 17:22:47;;;;;;;1.88;0.98;;;16.20;94.50;;;;;;10431086;28;20037;-66
2023/05/16 17:27:47;;;;;;;1.75;0.88;;;16.20;94.50;;;;;;10421735;28;20128;-67
2023/05/16 17:32:48;;;;;;;2.30;0.88;;;16.10;94.50;;;;;;10430494;28;20090;-67
2023/05/16 17:37:49;;;;;;;1.90;0.82;;;16.20;94.60;;;;;;10421527;28;20024;-67
2023/05/16 17:42:50;;;;;;;2.17;0.85;;;16.10;94.60;;;;;;10417623;28;20128;-67
2023/05/16 17:47:50;;;;;;;1.65;0.95;;;16.00;94.60;;;;;;10413041;28;20033;-67
2023/05/16 17:52:51;;;;;;;2.30;1.00;;;16.00;94.70;;;;;;10413066;28;20041;-67
2023/05/16 17:57:52;;;;;;;1.23;0.68;;;16.00;94.70;;;;;;10410270;28;20031;-67
2023/05/16 18:02:52;;;;;;;1.42;0.80;;;16.00;94.70;;;;;;10410114;28;20032;-67
2023/05/16 18:07:55;;;;;;;1.25;0.80;;;16.00;94.70;;;;;;10415464;28;20037;-66
2023/05/16 18:12:56;;;;;;;1.70;0.80;;;15.90;94.70;;;;;;10416994;28;20025;-67
2023/05/16 18:17:57;;;;;;;1.83;1.17;;;16.00;94.70;;;;;;10411183;28;20063;-67
2023/05/16 18:22:58;;;;;;;2.40;0.85;;;15.90;94.80;;;;;;10407725;28;20108;-67
2023/05/16 18:27:58;;;;;;;1.85;0.80;;;16.00;94.80;;;;;;10417458;28;20066;-67
2023/05/16 18:32:59;;;;;;;2.22;0.90;;;15.90;94.80;;;;;;10415043;28;20068;-66
2023/05/16 18:38:00;;;;;;;1.58;1.15;;;15.90;94.80;;;;;;10414922;28;20117;-67
2023/05/16 18:43:00;;;;;;;2.28;0.90;;;15.90;94.90;;;;;;10418374;28;20448;-67
2023/05/16 18:48:01;;;;;;;4.03;0.90;;;15.90;94.90;;;;;;10408940;28;20027;-67
2023/05/16 18:53:02;;;;;;;6.20;2.20;;;15.70;94.90;;;;;;10416396;28;20034;-67
2023/05/16 18:58:02;;;;;;;2.30;0.80;;;15.80;94.90;;;;;;10412013;28;20084;-67
2023/05/16 19:03:03;;;;;;;2.17;1.10;;;15.80;94.90;;;;;;10409693;28;20158;-67
2023/05/16 19:08:05;;;;;;;3.28;0.95;;;15.80;94.90;;;;;;10414437;28;20147;-67
2023/05/16 19:13:06;;;;;;;2.40;0.98;;;15.70;94.90;;;;;;10409342;28;20037;-67
2023/05/16 19:18:07;;;;;;;1.85;0.93;;;15.80;95.00;;;;;;10411016;28;20481;-67
2023/05/16 19:23:07;;;;;;;2.17;0.88;;;15.70;95.00;;;;;;10406915;28;20041;-67
2023/05/16 19:28:08;;;;;;;2.42;0.95;;;15.70;95.00;;;;;;10406822;28;20033;-67
2023/05/16 19:33:09;;;;;;;3.08;1.13;;;15.60;95.00;;;;;;10414666;28;20493;-67
2023/05/16 19:38:09;;;;;;;1.83;0.98;;;15.60;95.00;;;;;;10411182;28;20025;-67
2023/05/16 19:43:10;;;;;;;2.38;1.00;;;15.60;95.00;;;;;;10409155;28;20095;-67
2023/05/16 19:48:11;;;;;;;3.35;1.10;;;15.60;95.00;;;;;;10406849;28;20061;-67
2023/05/16 19:53:11;;;;;;;3.58;1.30;;;15.60;95.30;;;;;;10412937;28;20034;-67
2023/05/16 19:58:12;;;;;;;5.25;1.30;;;15.50;95.00;;;;;;10417576;28;20025;-67
2023/05/16 20:03:15;;;;;;;2.45;1.27;;;15.50;95.00;;;;;;10419491;28;20401;-67
2023/05/16 20:08:16;;;;;;;4.13;1.02;;;15.50;95.00;;;;;;10415118;28;20052;-67
2023/05/16 20:13:19;;;;;;;2.05;0.85;;;15.50;95.00;;;;;;10424893;28;20037;-67
2023/05/16 20:18:19;;;;;;;2.40;0.93;;;15.50;95.00;;;;;;10418632;28;20516;-67
2023/05/16 20:23:20;;;;;;;2.38;1.15;;;15.50;95.00;;;;;;10415109;28;20109;-67
2023/05/16 20:28:21;;;;;;;2.33;1.13;;;15.40;95.00;;;;;;10426249;28;20516;-67
2023/05/16 20:33:21;;;;;;;3.58;1.40;;;15.40;95.10;;;;;;10422581;28;20102;-67
2023/05/16 20:38:22;;;;;;;2.97;1.25;;;15.40;95.10;;;;;;10419993;28;20489;-67
2023/05/16 20:43:22;;;;;;;3.40;1.80;;;15.40;95.10;;;;;;10419340;28;20021;-66
2023/05/16 20:48:23;;;;;;;3.35;1.50;;;15.40;95.10;;;;;;10426520;28;20037;-66
2023/05/16 20:53:23;;;;;;;4.30;1.13;;;15.30;95.10;;;;;;10422575;28;20022;-66
2023/05/16 20:58:24;;;;;;;3.20;1.40;;;15.30;95.10;;;;;;10423118;28;20017;-66
2023/05/16 21:03:42;;;;;;;4.50;2.10;;;15.30;95.20;;;;;;10420918;28;20532;-71
2023/05/16 21:08:42;;;;;;;4.57;1.50;;;15.30;95.20;;;;;;10410182;28;20040;-68
2023/05/16 21:13:43;;;;;;;3.15;1.42;;;15.30;95.20;;;;;;10420058;28;20037;-68
2023/05/16 21:18:43;;;;;;;2.30;1.13;;;15.20;95.10;;;;;;10414014;28;20061;-67
2023/05/16 21:23:44;;;;;;;2.88;1.58;;;15.30;95.20;;;;;;10414972;28;20029;-67
2023/05/16 21:28:45;;;;;;;4.90;1.60;;;15.20;95.10;;;;;;10422516;28;20029;-68
2023/05/16 21:33:45;;;;;;;4.30;1.75;;;15.20;95.10;;;;;;10411800;28;20147;-68
2023/05/16 21:38:46;;;;;;;3.60;1.98;;;15.30;95.20;;;;;;10412563;28;20076;-69
2023/05/16 21:43:47;;;;;;;3.55;1.45;;;15.20;95.10;;;;;;10419587;28;20716;-68
2023/05/16 21:48:47;;;;;;;3.67;1.80;;;15.20;95.10;;;;;;10417075;28;20325;-68
2023/05/16 21:53:48;;;;;;;3.28;1.55;;;15.10;95.10;;;;;;10421614;28;20039;-68
2023/05/16 21:58:48;;;;;;;3.53;1.60;;;15.10;95.10;;;;;;10416369;28;20029;-68
2023/05/16 22:03:50;;;;;;;3.90;1.55;;;15.00;95.10;;;;;;10415224;28;20033;-68
2023/05/16 22:08:50;;;;;;;5.20;1.70;;;15.10;95.10;;;;;;10421947;28;20063;-68
2023/05/16 22:13:51;;;;;;;4.55;1.75;;;15.10;95.10;;;;;;10418800;28;20540;-68
2023/05/16 22:18:51;;;;;;;6.60;1.70;;;15.00;95.10;;;;;;10423869;28;20431;-67
2023/05/16 22:23:52;;;;;;;4.63;1.60;;;15.00;95.10;;;;;;10418254;28;20033;-68
2023/05/16 22:28:52;;;;;;;6.18;1.90;;;15.00;95.10;;;;;;10419281;28;20044;-67
2023/05/16 22:33:53;;;;;;;3.72;1.77;;;15.00;95.10;;;;;;10430084;28;20138;-68
2023/05/16 22:38:54;;;;;;;2.40;1.58;;;15.00;95.10;;;;;;10420222;28;20104;-68
2023/05/16 22:43:55;;;;;;;4.85;1.98;;;15.00;95.10;;;;;;10424529;28;20032;-67
2023/05/16 22:48:55;;;;;;;3.63;1.45;;;15.00;95.10;;;;;;10421892;28;20425;-67
2023/05/16 22:53:56;;;;;;;2.95;1.58;;;14.90;95.10;;;;;;10421256;28;20590;-68
2023/05/16 22:58:56;;;;;;;6.28;1.80;;;14.90;95.20;;;;;;10420660;28;20017;-67
2023/05/16 23:03:57;;;;;;;3.75;1.60;;;14.90;95.10;;;;;;10420646;28;20063;-68
2023/05/16 23:08:59;;;;;;;5.25;1.75;;;14.90;95.10;;;;;;10430651;28;20021;-68
2023/05/16 23:14:00;;;;;;;3.67;1.75;;;14.80;95.10;;;;;;10426139;28;20017;-68
2023/05/16 23:19:00;;;;;;;5.75;1.85;;;14.90;95.10;;;;;;10432105;28;20044;-67
2023/05/16 23:24:01;;;;;;;4.38;1.80;;;14.80;95.10;;;;;;10428634;28;20028;-68
2023/05/16 23:29:01;;;;;;;3.63;1.83;;;14.90;95.10;;;;;;10433799;28;20036;-67
2023/05/16 23:34:02;;;;;;;3.22;2.08;;;14.80;95.10;;;;;;10440123;28;20017;-68
2023/05/16 23:39:03;;;;;;;8.25;1.92;;;14.80;95.10;;;;;;10427768;28;20511;-68
2023/05/16 23:44:04;;;;;;;4.93;1.52;;;14.80;95.10;;;;;;10429395;28;20519;-67
2023/05/16 23:49:04;;;;;;;6.25;1.92;;;14.80;95.10;;;;;;10433555;28;20025;-66
2023/05/16 23:54:05;;;;;;;3.92;1.95;;;14.70;95.10;;;;;;10436640;28;20029;-66
2023/05/16 23:59:05;;;;;;;4.50;1.60;;;14.70;95.10;;;;;;10426238;28;20021;-67
